createdAt,value
2022-08-03T00:00:05.677Z,74.29
2022-08-03T00:01:05.647Z,74.29
2022-08-03T00:02:05.652Z,73.98
2022-08-03T00:03:05.675Z,74.18
2022-08-03T00:04:05.625Z,73.98
2022-08-03T00:05:05.615Z,74.49
2022-08-03T00:06:05.605Z,74.18
2022-08-03T00:07:05.612Z,74.18
2022-08-03T00:08:05.582Z,74.08
2022-08-03T00:09:05.574Z,74.08
2022-08-03T00:10:05.554Z,74.29
2022-08-03T00:11:05.559Z,74.38
2022-08-03T00:12:05.560Z,73.98
2022-08-03T00:13:05.529Z,74.89
2022-08-03T00:14:05.527Z,73.88
2022-08-03T00:15:09.504Z,74.32
2022-08-03T00:16:06.500Z,73.98
2022-08-03T00:17:05.489Z,74.42
2022-08-03T00:18:05.524Z,74.02
2022-08-03T00:19:05.468Z,75.13
2022-08-03T00:20:05.451Z,74.82
2022-08-03T00:21:06.448Z,75.23
2022-08-03T00:22:05.450Z,75.83
2022-08-03T00:23:05.450Z,75.43
2022-08-03T00:24:05.423Z,75.13
2022-08-03T00:25:05.397Z,75.63
2022-08-03T00:26:38.320Z,75.56
2022-08-03T00:27:05.386Z,75.46
2022-08-03T00:28:05.381Z,75.56
2022-08-03T00:29:05.359Z,75.56
2022-08-03T00:30:05.358Z,75.46
2022-08-03T00:31:05.347Z,75.87
2022-08-03T00:32:05.361Z,76.07
2022-08-03T00:33:05.329Z,75.53
2022-08-03T00:34:06.028Z,75.73
2022-08-03T00:35:08.067Z,75.73
2022-08-03T00:36:05.298Z,75.76
2022-08-03T00:37:05.311Z,75.87
2022-08-03T00:38:05.289Z,75.76
2022-08-03T00:39:05.272Z,75.76
2022-08-03T00:40:05.541Z,76.37
2022-08-03T00:41:05.247Z,75.87
2022-08-03T00:42:05.239Z,75.96
2022-08-03T00:43:05.248Z,75.46
2022-08-03T00:44:05.219Z,75.36
2022-08-03T00:45:06.216Z,75.67
2022-08-03T00:46:05.200Z,75.43
2022-08-03T00:47:05.203Z,75.36
2022-08-03T00:48:05.221Z,75.76
2022-08-03T00:49:05.233Z,75.63
2022-08-03T00:50:05.159Z,75.67
2022-08-03T00:51:05.153Z,75.76
2022-08-03T00:52:09.703Z,75.93
2022-08-03T00:53:05.150Z,75.63
2022-08-03T00:54:05.145Z,75.73
2022-08-03T00:55:05.131Z,75.43
2022-08-03T00:56:05.106Z,75.83
2022-08-03T00:57:05.098Z,75.63
2022-08-03T00:58:05.080Z,75.76
2022-08-03T00:59:05.115Z,75.56
2022-08-03T01:00:05.065Z,75.26
2022-08-03T01:01:05.097Z,75.56
2022-08-03T01:02:05.049Z,76.07
2022-08-03T01:03:05.042Z,75.56
2022-08-03T01:04:05.052Z,76.47
2022-08-03T01:05:05.028Z,77.08
2022-08-03T01:06:05.027Z,76.61
2022-08-03T01:07:05.025Z,77.08
2022-08-03T01:08:04.994Z,77.21
2022-08-03T01:09:04.977Z,77.48
2022-08-03T01:10:05.975Z,77.01
2022-08-03T01:11:04.990Z,77.51
2022-08-03T01:12:04.955Z,77.72
2022-08-03T01:13:04.946Z,77.42
2022-08-03T01:14:18.319Z,77.31
2022-08-03T01:15:06.926Z,77.62
2022-08-03T01:16:04.918Z,77.51
2022-08-03T01:17:04.937Z,77.51
2022-08-03T01:18:04.901Z,77.82
2022-08-03T01:19:04.882Z,78.42
2022-08-03T01:20:04.876Z,78.42
2022-08-03T01:21:04.910Z,78.22
2022-08-03T01:22:04.854Z,79.16
2022-08-03T01:23:04.853Z,79.27
2022-08-03T01:24:04.840Z,79.57
2022-08-03T01:25:04.840Z,78.96
2022-08-03T01:26:04.844Z,79.16
2022-08-03T01:27:04.825Z,79.36
2022-08-03T01:28:04.818Z,78.96
2022-08-03T01:29:04.793Z,79.36
2022-08-03T01:30:04.780Z,78.66
2022-08-03T01:31:04.773Z,78.56
2022-08-03T01:33:03.165Z,78.76
2022-08-03T01:33:06.014Z,78.56
2022-08-03T01:34:04.762Z,78.26
2022-08-03T01:35:04.733Z,78.56
2022-08-03T01:36:04.733Z,79.36
2022-08-03T01:37:04.712Z,79.47
2022-08-03T01:38:04.720Z,78.86
2022-08-03T01:39:04.685Z,79.06
2022-08-03T01:40:04.681Z,78.96
2022-08-03T01:41:04.686Z,78.66
2022-08-03T01:42:04.658Z,78.36
2022-08-03T01:43:04.666Z,79.27
2022-08-03T01:44:29.159Z,78.66
2022-08-03T01:45:05.632Z,78.86
2022-08-03T01:46:05.638Z,78.56
2022-08-03T01:47:04.629Z,79.06
2022-08-03T01:48:04.599Z,78.76
2022-08-03T01:49:08.974Z,78.26
2022-08-03T01:50:04.581Z,78.66
2022-08-03T01:51:04.581Z,78.76
2022-08-03T01:52:05.508Z,78.46
2022-08-03T01:53:04.546Z,78.36
2022-08-03T01:54:04.571Z,78.46
2022-08-03T01:55:04.533Z,78.36
2022-08-03T01:56:04.532Z,78.66
2022-08-03T01:57:04.507Z,78.06
2022-08-03T01:58:06.589Z,78.06
2022-08-03T01:59:04.523Z,78.26
2022-08-03T02:00:04.478Z,77.95
2022-08-03T02:01:04.494Z,78.50
2022-08-03T02:02:32.023Z,78.70
2022-08-03T02:03:05.454Z,78.59
2022-08-03T02:04:04.436Z,78.19
2022-08-03T02:05:04.447Z,77.69
2022-08-03T02:07:02.188Z,78.70
2022-08-03T02:07:06.413Z,77.89
2022-08-03T02:08:04.414Z,78.50
2022-08-03T02:09:04.392Z,78.50
2022-08-03T02:10:04.409Z,78.50
2022-08-03T02:11:04.367Z,78.70
2022-08-03T02:12:04.369Z,78.70
2022-08-03T02:13:04.392Z,78.59
2022-08-03T02:14:04.341Z,78.59
2022-08-03T02:15:04.359Z,78.43
2022-08-03T02:16:04.327Z,78.80
2022-08-03T02:17:04.312Z,79.34
2022-08-03T02:18:04.308Z,78.63
2022-08-03T02:19:04.297Z,78.53
2022-08-03T02:20:04.306Z,78.74
2022-08-03T02:21:10.874Z,79.24
2022-08-03T02:22:05.280Z,79.54
2022-08-03T02:23:04.250Z,79.85
2022-08-03T02:24:04.251Z,80.05
2022-08-03T02:25:04.252Z,80.15
2022-08-03T02:26:04.225Z,79.88
2022-08-03T02:27:04.217Z,79.99
2022-08-03T02:28:04.235Z,80.25
2022-08-03T02:29:04.212Z,79.58
2022-08-03T02:30:04.189Z,78.97
2022-08-03T02:31:04.179Z,79.58
2022-08-03T02:32:04.164Z,79.08
2022-08-03T02:33:04.177Z,79.48
2022-08-03T02:34:04.155Z,79.88
2022-08-03T02:35:04.138Z,79.08
2022-08-03T02:36:04.133Z,79.08
2022-08-03T02:37:04.118Z,79.58
2022-08-03T02:38:04.102Z,79.48
2022-08-03T02:39:04.122Z,78.77
2022-08-03T02:40:04.082Z,78.97
2022-08-03T02:41:04.082Z,79.17
2022-08-03T02:42:04.065Z,79.58
2022-08-03T02:43:04.067Z,79.99
2022-08-03T02:44:06.084Z,79.88
2022-08-03T02:45:04.023Z,79.58
2022-08-03T02:46:04.026Z,79.99
2022-08-03T02:47:04.027Z,79.99
2022-08-03T02:48:04.022Z,80.19
2022-08-03T02:49:40.996Z,79.99
2022-08-03T02:50:05.014Z,80.08
2022-08-03T02:51:03.982Z,80.19
2022-08-03T02:52:03.991Z,79.58
2022-08-03T02:53:03.987Z,79.58
2022-08-03T02:54:03.950Z,79.79
2022-08-03T02:55:03.938Z,79.88
2022-08-03T02:56:03.924Z,79.99
2022-08-03T02:57:03.918Z,80.08
2022-08-03T02:58:03.937Z,79.88
2022-08-03T02:59:03.903Z,80.19
2022-08-03T03:00:03.893Z,79.99
2022-08-03T03:01:03.972Z,80.08
2022-08-03T03:02:03.887Z,80.43
2022-08-03T03:03:03.890Z,79.99
2022-08-03T03:04:03.864Z,80.22
2022-08-03T03:05:54.338Z,80.08
2022-08-03T03:06:05.799Z,80.12
2022-08-03T03:07:04.491Z,80.29
2022-08-03T03:08:03.823Z,80.39
2022-08-03T03:09:04.831Z,80.22
2022-08-03T03:10:03.821Z,80.32
2022-08-03T03:11:03.779Z,80.19
2022-08-03T03:12:03.830Z,80.02
2022-08-03T03:13:03.759Z,80.73
2022-08-03T03:14:03.747Z,80.93
2022-08-03T03:15:03.740Z,80.63
2022-08-03T03:16:03.763Z,80.53
2022-08-03T03:17:03.728Z,81.13
2022-08-03T03:18:03.710Z,81.23
2022-08-03T03:19:03.702Z,80.93
2022-08-03T03:20:03.700Z,81.44
2022-08-03T03:21:03.720Z,81.54
2022-08-03T03:22:03.688Z,81.54
2022-08-03T03:23:03.680Z,80.93
2022-08-03T03:24:03.695Z,81.23
2022-08-03T03:25:03.641Z,81.74
2022-08-03T03:26:03.635Z,81.48
2022-08-03T03:27:03.626Z,81.88
2022-08-03T03:28:03.618Z,81.27
2022-08-03T03:29:03.625Z,81.57
2022-08-03T03:30:03.591Z,80.97
2022-08-03T03:31:03.594Z,80.83
2022-08-03T03:32:03.583Z,80.77
2022-08-03T03:33:03.582Z,80.46
2022-08-03T03:34:03.586Z,80.77
2022-08-03T03:35:03.558Z,80.97
2022-08-03T03:36:03.538Z,80.93
2022-08-03T03:37:03.533Z,81.07
2022-08-03T03:38:03.544Z,80.97
2022-08-03T03:39:15.094Z,80.77
2022-08-03T03:40:04.500Z,80.97
2022-08-03T03:41:03.493Z,81.07
2022-08-03T03:42:03.484Z,80.87
2022-08-03T03:43:03.484Z,81.07
2022-08-03T03:44:03.462Z,81.57
2022-08-03T03:45:03.452Z,81.07
2022-08-03T03:46:03.467Z,80.87
2022-08-03T03:47:03.429Z,81.37
2022-08-03T03:48:03.424Z,81.48
2022-08-03T03:49:03.450Z,81.17
2022-08-03T03:50:03.402Z,81.07
2022-08-03T03:51:03.399Z,81.07
2022-08-03T03:52:03.399Z,81.27
2022-08-03T03:53:03.365Z,80.97
2022-08-03T03:54:03.428Z,80.97
2022-08-03T03:55:03.369Z,80.97
2022-08-03T03:56:03.342Z,80.97
2022-08-03T03:57:03.330Z,80.97
2022-08-03T03:58:03.319Z,81.68
2022-08-03T03:59:03.306Z,81.68
2022-08-03T04:00:03.316Z,81.27
2022-08-03T04:01:03.392Z,81.68
2022-08-03T04:02:03.286Z,81.57
2022-08-03T04:03:03.281Z,81.37
2022-08-03T04:04:03.259Z,81.27
2022-08-03T04:05:03.255Z,80.66
2022-08-03T04:06:03.257Z,80.66
2022-08-03T04:07:03.224Z,80.53
2022-08-03T04:08:03.246Z,80.66
2022-08-03T04:09:03.224Z,80.43
2022-08-03T04:10:14.621Z,80.73
2022-08-03T04:11:04.192Z,80.36
2022-08-03T04:12:04.183Z,80.43
2022-08-03T04:13:03.195Z,80.12
2022-08-03T04:14:03.164Z,79.92
2022-08-03T04:15:03.158Z,79.28
2022-08-03T04:16:03.136Z,78.84
2022-08-03T04:17:03.140Z,77.15
2022-08-03T04:18:03.160Z,75.46
2022-08-03T04:19:03.112Z,73.65
2022-08-03T04:20:03.114Z,71.36
2022-08-03T04:21:03.094Z,68.99
2022-08-03T04:22:03.104Z,68.32
2022-08-03T04:23:03.078Z,66.58
2022-08-03T04:24:03.078Z,64.81
2022-08-03T04:25:03.084Z,64.15
2022-08-03T04:26:03.056Z,62.22
2022-08-03T04:27:03.034Z,60.57
2022-08-03T04:28:30.028Z,60.33
2022-08-03T04:29:04.085Z,58.78
2022-08-03T04:30:03.024Z,58.06
2022-08-03T04:31:03.002Z,57.63
2022-08-03T04:32:03.173Z,56.90
2022-08-03T04:33:02.994Z,56.40
2022-08-03T04:34:02.967Z,55.48
2022-08-03T04:35:02.967Z,55.21
2022-08-03T04:36:03.827Z,55.88
2022-08-03T04:37:03.966Z,55.78
2022-08-03T04:38:02.933Z,55.65
2022-08-03T04:39:02.917Z,54.46
2022-08-03T04:40:02.921Z,54.11
2022-08-03T04:41:02.900Z,53.09
2022-08-03T04:42:08.034Z,53.26
2022-08-03T04:43:03.888Z,51.54
2022-08-03T04:44:02.876Z,52.34
2022-08-03T04:45:02.876Z,51.92
2022-08-03T04:46:02.873Z,51.30
2022-08-03T04:47:02.850Z,50.81
2022-08-03T04:48:03.115Z,50.28
2022-08-03T04:49:02.878Z,50.48
2022-08-03T04:50:02.825Z,49.07
2022-08-03T04:51:02.830Z,48.97
2022-08-03T04:52:02.800Z,49.05
2022-08-03T04:53:02.805Z,49.37
2022-08-03T04:54:02.780Z,49.27
2022-08-03T04:55:02.789Z,49.27
2022-08-03T04:56:03.762Z,48.25
2022-08-03T04:57:02.760Z,48.33
2022-08-03T04:58:02.759Z,48.50
2022-08-03T04:59:02.764Z,47.52
2022-08-03T05:00:03.706Z,47.22
2022-08-03T05:01:03.722Z,47.52
2022-08-03T05:02:02.767Z,47.29
2022-08-03T05:03:02.715Z,46.80
2022-08-03T05:04:02.704Z,47.19
2022-08-03T05:05:02.689Z,47.56
2022-08-03T05:06:09.691Z,46.45
2022-08-03T05:07:11.704Z,46.23
2022-08-03T05:08:03.493Z,45.47
2022-08-03T05:09:02.669Z,46.63
2022-08-03T05:10:03.351Z,45.72
2022-08-03T05:11:02.658Z,44.32
2022-08-03T05:12:02.642Z,44.20
2022-08-03T05:13:02.614Z,42.77
2022-08-03T05:14:02.600Z,43.17
2022-08-03T05:15:02.619Z,42.87
2022-08-03T05:16:02.588Z,41.67
2022-08-03T05:17:02.592Z,41.38
2022-08-03T05:18:02.567Z,41.78
2022-08-03T05:19:02.555Z,42.38
2022-08-03T05:20:02.557Z,42.30
2022-08-03T05:21:02.547Z,42.47
2022-08-03T05:22:02.550Z,42.65
2022-08-03T05:23:02.549Z,41.77
2022-08-03T05:24:02.522Z,42.85
2022-08-03T05:25:02.573Z,41.67
2022-08-03T05:26:02.507Z,41.85
2022-08-03T05:27:02.508Z,42.44
2022-08-03T05:28:02.479Z,41.86
2022-08-03T05:29:02.475Z,41.39
2022-08-03T05:30:29.722Z,42.40
2022-08-03T05:31:03.456Z,42.93
2022-08-03T05:32:07.748Z,43.73
2022-08-03T05:33:04.456Z,43.23
2022-08-03T05:34:02.427Z,44.39
2022-08-03T05:36:01.459Z,43.78
2022-08-03T05:36:04.386Z,43.07
2022-08-03T05:37:03.396Z,42.83
2022-08-03T05:38:02.397Z,41.93
2022-08-03T05:39:03.032Z,41.51
2022-08-03T05:40:03.370Z,41.41
2022-08-03T05:41:22.906Z,41.51
2022-08-03T05:42:03.379Z,41.53
2022-08-03T05:43:02.352Z,41.24
2022-08-03T05:44:02.345Z,42.54
2022-08-03T05:45:02.340Z,42.14
2022-08-03T05:46:11.956Z,40.82
2022-08-03T05:47:02.315Z,41.31
2022-08-03T05:48:02.312Z,41.41
2022-08-03T05:49:02.351Z,41.31
2022-08-03T05:50:02.292Z,40.70
2022-08-03T05:51:02.305Z,41.37
2022-08-03T05:52:21.146Z,40.70
2022-08-03T05:53:04.259Z,40.70
2022-08-03T05:54:02.268Z,41.00
2022-08-03T05:55:02.241Z,41.27
2022-08-03T05:56:03.559Z,40.48
2022-08-03T05:57:03.226Z,41.16
2022-08-03T05:58:02.226Z,39.78
2022-08-03T05:59:22.457Z,41.43
2022-08-03T06:00:04.221Z,39.27
2022-08-03T06:01:02.189Z,39.27
2022-08-03T06:02:02.244Z,39.27
2022-08-03T06:03:02.176Z,38.98
2022-08-03T06:04:02.169Z,38.96
2022-08-03T06:05:02.178Z,39.23
2022-08-03T06:06:02.151Z,38.15
2022-08-03T06:07:02.140Z,38.04
2022-08-03T06:08:02.132Z,37.52
2022-08-03T06:09:02.142Z,36.92
2022-08-03T06:10:36.858Z,38.10
2022-08-03T06:11:02.128Z,37.39
2022-08-03T06:12:02.116Z,37.59
2022-08-03T06:13:02.092Z,36.87
2022-08-03T06:14:02.081Z,36.16
2022-08-03T06:15:02.077Z,36.57
2022-08-03T06:16:02.083Z,35.97
2022-08-03T06:17:02.064Z,36.73
2022-08-03T06:18:02.385Z,36.93
2022-08-03T06:19:03.044Z,35.58
2022-08-03T06:20:02.032Z,35.89
2022-08-03T06:21:14.139Z,36.87
2022-08-03T06:22:03.014Z,36.30
2022-08-03T06:23:02.019Z,38.10
2022-08-03T06:24:02.568Z,37.10
2022-08-03T06:25:04.953Z,38.47
2022-08-03T06:26:05.629Z,37.90
2022-08-03T06:27:36.799Z,37.94
2022-08-03T06:28:01.959Z,39.03
2022-08-03T06:29:03.944Z,39.35
2022-08-03T06:30:01.950Z,38.72
2022-08-03T06:31:01.938Z,39.01
2022-08-03T06:32:01.935Z,39.27
2022-08-03T06:33:02.921Z,37.82
2022-08-03T06:34:32.576Z,37.90
2022-08-03T06:35:02.912Z,37.10
2022-08-03T06:36:01.901Z,37.10
2022-08-03T06:37:02.413Z,38.20
2022-08-03T06:38:01.921Z,38.98
2022-08-03T06:39:01.888Z,37.81
2022-08-03T06:40:01.894Z,38.33
2022-08-03T06:41:01.857Z,39.01
2022-08-03T06:42:01.844Z,38.29
2022-08-03T06:43:01.839Z,37.98
2022-08-03T06:44:03.364Z,38.10
2022-08-03T06:45:02.963Z,38.10
2022-08-03T06:46:01.818Z,37.59
2022-08-03T06:47:01.808Z,39.22
2022-08-03T06:48:01.806Z,37.96
2022-08-03T06:49:01.873Z,39.61
2022-08-03T06:50:12.845Z,39.06
2022-08-03T06:51:02.785Z,36.57
2022-08-03T06:52:05.570Z,37.77
2022-08-03T06:53:01.751Z,38.12
2022-08-03T06:54:01.747Z,37.94
2022-08-03T06:55:01.766Z,38.43
2022-08-03T06:56:01.726Z,37.74
2022-08-03T06:57:01.722Z,38.72
2022-08-03T06:58:03.264Z,38.39
2022-08-03T06:59:01.696Z,38.67
2022-08-03T07:00:08.446Z,37.92
2022-08-03T07:01:01.719Z,38.02
2022-08-03T07:02:01.684Z,38.02
2022-08-03T07:03:01.674Z,37.12
2022-08-03T07:04:01.667Z,36.51
2022-08-03T07:05:01.683Z,38.49
2022-08-03T07:06:01.640Z,37.39
2022-08-03T07:07:01.639Z,37.02
2022-08-03T07:08:01.643Z,38.20
2022-08-03T07:09:01.621Z,37.79
2022-08-03T07:10:02.228Z,37.08
2022-08-03T07:11:01.673Z,36.67
2022-08-03T07:12:01.598Z,36.18
2022-08-03T07:13:01.591Z,36.40
2022-08-03T07:14:01.580Z,36.79
2022-08-03T07:15:02.904Z,36.57
2022-08-03T07:16:02.580Z,36.96
2022-08-03T07:17:01.559Z,35.07
2022-08-03T07:18:01.541Z,37.16
2022-08-03T07:19:01.533Z,36.47
2022-08-03T07:20:01.613Z,37.06
2022-08-03T07:21:01.533Z,36.10
2022-08-03T07:22:02.323Z,36.18
2022-08-03T07:23:01.508Z,35.77
2022-08-03T07:24:01.495Z,35.07
2022-08-03T07:25:01.517Z,35.68
2022-08-03T07:26:01.487Z,35.97
2022-08-03T07:27:01.472Z,35.77
2022-08-03T07:28:01.458Z,35.94
2022-08-03T07:29:01.454Z,35.14
2022-08-03T07:30:01.447Z,35.43
2022-08-03T07:31:01.475Z,34.45
2022-08-03T07:32:01.425Z,34.26
2022-08-03T07:33:01.418Z,33.85
2022-08-03T07:34:01.441Z,34.24
2022-08-03T07:35:01.825Z,33.77
2022-08-03T07:36:01.428Z,35.46
2022-08-03T07:37:01.392Z,35.17
2022-08-03T07:38:01.387Z,33.79
2022-08-03T07:39:01.383Z,34.26
2022-08-03T07:40:02.359Z,34.14
2022-08-03T07:41:01.437Z,32.96
2022-08-03T07:42:01.360Z,34.05
2022-08-03T07:43:01.336Z,35.02
2022-08-03T07:44:01.343Z,35.33
2022-08-03T07:45:01.360Z,34.06
2022-08-03T07:46:01.313Z,33.36
2022-08-03T07:47:03.434Z,35.33
2022-08-03T07:48:01.298Z,35.06
2022-08-03T07:49:01.334Z,34.55
2022-08-03T07:50:01.281Z,33.67
2022-08-03T07:51:01.268Z,33.98
2022-08-03T07:52:01.281Z,35.24
2022-08-03T07:53:01.259Z,35.51
2022-08-03T07:54:01.264Z,33.06
2022-08-03T07:55:01.267Z,33.43
2022-08-03T07:56:01.233Z,33.33
2022-08-03T07:57:01.226Z,33.95
2022-08-03T07:58:01.238Z,33.75
2022-08-03T07:59:01.213Z,34.03
2022-08-03T08:00:02.485Z,33.44
2022-08-03T08:01:01.252Z,32.09
2022-08-03T08:02:01.186Z,31.96
2022-08-03T08:03:01.201Z,31.16
2022-08-03T08:04:01.178Z,31.93
2022-08-03T08:05:05.529Z,32.23
2022-08-03T08:06:02.159Z,31.95
2022-08-03T08:07:01.140Z,32.76
2022-08-03T08:08:01.161Z,32.99
2022-08-03T08:09:01.133Z,32.99
2022-08-03T08:10:01.111Z,34.92
2022-08-03T08:11:01.137Z,33.73
2022-08-03T08:12:01.109Z,33.46
2022-08-03T08:13:01.100Z,34.24
2022-08-03T08:14:01.086Z,33.15
2022-08-03T08:15:01.088Z,33.31
2022-08-03T08:16:01.098Z,33.01
2022-08-03T08:17:04.432Z,32.11
2022-08-03T08:18:02.052Z,31.35
2022-08-03T08:19:01.051Z,30.35
2022-08-03T08:20:01.043Z,32.68
2022-08-03T08:21:01.068Z,31.79
2022-08-03T08:22:02.390Z,31.61
2022-08-03T08:23:01.298Z,30.74
2022-08-03T08:24:01.012Z,31.70
2022-08-03T08:25:01.442Z,30.72
2022-08-03T08:26:01.002Z,32.28
2022-08-03T08:27:01.003Z,31.68
2022-08-03T08:28:30.056Z,30.44
2022-08-03T08:29:00.959Z,30.87
2022-08-03T08:30:10.407Z,32.15
2022-08-03T08:31:02.931Z,32.13
2022-08-03T08:32:00.960Z,31.37
2022-08-03T08:33:00.955Z,32.24
2022-08-03T08:34:03.917Z,32.05
2022-08-03T08:35:01.923Z,32.06
2022-08-03T08:36:00.906Z,32.75
2022-08-03T08:37:00.909Z,33.04
2022-08-03T08:38:04.172Z,33.73
2022-08-03T08:39:00.896Z,32.78
2022-08-03T08:40:00.874Z,33.38
2022-08-03T08:41:00.858Z,33.77
2022-08-03T08:42:00.857Z,33.97
2022-08-03T08:43:00.848Z,33.17
2022-08-03T08:44:00.870Z,33.36
2022-08-03T08:45:01.051Z,33.15
2022-08-03T08:46:00.825Z,34.11
2022-08-03T08:47:00.823Z,33.31
2022-08-03T08:48:04.414Z,33.69
2022-08-03T08:49:04.539Z,31.82
2022-08-03T08:50:09.691Z,30.77
2022-08-03T08:51:02.785Z,31.35
2022-08-03T08:52:01.676Z,32.11
2022-08-03T08:53:00.769Z,32.11
2022-08-03T08:54:00.784Z,31.93
2022-08-03T08:55:00.773Z,31.95
2022-08-03T08:56:01.328Z,32.43
2022-08-03T08:57:00.738Z,32.24
2022-08-03T08:58:00.717Z,30.77
2022-08-03T08:59:00.726Z,31.53
2022-08-03T09:00:00.730Z,30.74
2022-08-03T09:01:01.727Z,30.08
2022-08-03T09:02:00.697Z,31.67
2022-08-03T09:03:00.683Z,32.05
2022-08-03T09:04:00.672Z,32.71
2022-08-03T09:05:05.328Z,31.53
2022-08-03T09:06:02.671Z,31.90
2022-08-03T09:07:29.105Z,31.61
2022-08-03T09:08:02.627Z,31.74
2022-08-03T09:09:00.665Z,32.15
2022-08-03T09:10:11.258Z,32.11
2022-08-03T09:11:01.640Z,32.24
2022-08-03T09:12:20.032Z,31.57
2022-08-03T09:13:02.579Z,33.14
2022-08-03T09:14:00.576Z,32.24
2022-08-03T09:15:16.551Z,32.15
2022-08-03T09:16:02.598Z,31.25
2022-08-03T09:17:00.556Z,31.93
2022-08-03T09:18:00.531Z,30.55
2022-08-03T09:19:00.536Z,30.08
2022-08-03T09:20:03.143Z,31.85
2022-08-03T09:21:14.796Z,31.85
2022-08-03T09:22:02.543Z,32.05
2022-08-03T09:23:00.528Z,32.43
2022-08-03T09:24:03.776Z,31.09
2022-08-03T09:25:22.691Z,32.15
2022-08-03T09:26:02.484Z,32.94
2022-08-03T09:27:00.463Z,32.15
2022-08-03T09:28:00.473Z,32.92
2022-08-03T09:29:04.665Z,31.84
2022-08-03T09:30:02.432Z,31.93
2022-08-03T09:31:00.438Z,30.85
2022-08-03T09:32:00.451Z,31.43
2022-08-03T09:33:00.419Z,30.74
2022-08-03T09:34:00.404Z,29.96
2022-08-03T09:35:00.414Z,31.92
2022-08-03T09:36:00.393Z,31.35
2022-08-03T09:37:00.371Z,30.70
2022-08-03T09:38:11.192Z,32.26
2022-08-03T09:39:01.368Z,30.41
2022-08-03T09:40:00.366Z,30.21
2022-08-03T09:41:01.042Z,29.15
2022-08-03T09:42:00.335Z,30.19
2022-08-03T09:43:00.337Z,30.29
2022-08-03T09:44:00.316Z,31.16
2022-08-03T09:45:00.335Z,30.19
2022-08-03T09:46:00.303Z,30.58
2022-08-03T09:47:00.290Z,29.52
2022-08-03T09:48:00.272Z,30.18
2022-08-03T09:49:00.348Z,30.75
2022-08-03T09:50:00.261Z,32.00
2022-08-03T09:51:13.574Z,32.08
2022-08-03T09:52:30.114Z,30.82
2022-08-03T09:53:00.242Z,30.41
2022-08-03T09:54:00.554Z,29.86
2022-08-03T09:55:00.216Z,29.50
2022-08-03T09:56:36.146Z,30.41
2022-08-03T09:57:01.223Z,31.20
2022-08-03T09:58:00.184Z,30.62
2022-08-03T09:59:00.182Z,30.31
2022-08-03T10:00:04.619Z,30.91
2022-08-03T10:01:01.197Z,31.98
2022-08-03T10:02:00.171Z,31.48
2022-08-03T10:03:00.144Z,31.20
2022-08-03T10:04:04.418Z,31.69
2022-08-03T10:05:00.131Z,32.06
2022-08-03T10:06:00.286Z,31.56
2022-08-03T10:07:00.121Z,30.51
2022-08-03T10:08:00.104Z,31.38
2022-08-03T10:09:00.093Z,30.31
2022-08-03T10:10:29.322Z,30.80
2022-08-03T10:11:01.076Z,30.13
2022-08-03T10:12:00.072Z,31.12
2022-08-03T10:13:00.153Z,31.88
2022-08-03T10:14:01.317Z,32.08
2022-08-03T10:15:00.046Z,31.19
2022-08-03T10:16:22.766Z,31.79
2022-08-03T10:17:00.009Z,30.83
2022-08-03T10:18:00.032Z,32.29
2022-08-03T10:19:00.023Z,32.39
2022-08-03T10:19:59.998Z,31.90
2022-08-03T10:21:00.004Z,32.32
2022-08-03T10:21:59.990Z,32.24
2022-08-03T10:22:59.974Z,32.73
2022-08-03T10:23:59.982Z,32.82
2022-08-03T10:24:59.997Z,32.62
2022-08-03T10:25:59.948Z,32.53
2022-08-03T10:26:59.921Z,32.34
2022-08-03T10:27:59.956Z,31.96
2022-08-03T10:28:59.916Z,32.27
2022-08-03T10:29:59.962Z,32.26
2022-08-03T10:30:59.908Z,33.92
2022-08-03T10:31:59.943Z,32.14
2022-08-03T10:32:59.870Z,33.61
2022-08-03T10:33:59.883Z,32.23
2022-08-03T10:35:01.786Z,31.45
2022-08-03T10:35:59.862Z,30.77
2022-08-03T10:36:59.865Z,31.85
2022-08-03T10:37:59.821Z,33.02
2022-08-03T10:38:59.826Z,34.38
2022-08-03T10:39:59.807Z,32.21
2022-08-03T10:40:59.807Z,32.79
2022-08-03T10:42:02.548Z,31.99
2022-08-03T10:42:59.793Z,31.82
2022-08-03T10:43:59.795Z,30.55
2022-08-03T10:44:59.776Z,32.03
2022-08-03T10:45:59.759Z,32.31
2022-08-03T10:46:59.763Z,32.01
2022-08-03T10:47:59.776Z,30.96
2022-08-03T10:48:59.755Z,32.04
2022-08-03T10:49:59.739Z,32.06
2022-08-03T10:50:59.711Z,32.35
2022-08-03T10:51:59.699Z,32.06
2022-08-03T10:53:01.961Z,31.48
2022-08-03T10:53:59.699Z,33.23
2022-08-03T10:55:00.733Z,32.75
2022-08-03T10:55:59.673Z,32.95
2022-08-03T10:57:02.617Z,32.27
2022-08-03T10:58:00.650Z,32.37
2022-08-03T10:58:59.643Z,32.27
2022-08-03T10:59:59.664Z,31.88
2022-08-03T11:01:00.651Z,32.17
2022-08-03T11:02:01.067Z,32.37
2022-08-03T11:03:00.626Z,32.86
2022-08-03T11:03:59.588Z,32.27
2022-08-03T11:04:59.594Z,32.35
2022-08-03T11:05:59.609Z,31.78
2022-08-03T11:06:59.593Z,33.64
2022-08-03T11:07:59.556Z,32.46
2022-08-03T11:08:59.552Z,31.78
2022-08-03T11:09:59.542Z,32.07
2022-08-03T11:11:00.085Z,32.27
2022-08-03T11:11:59.554Z,32.16
2022-08-03T11:12:59.520Z,33.22
2022-08-03T11:13:59.526Z,32.14
2022-08-03T11:14:59.511Z,30.58
2022-08-03T11:16:01.729Z,31.85
2022-08-03T11:16:59.488Z,32.04
2022-08-03T11:17:59.472Z,32.73
2022-08-03T11:18:59.464Z,32.04
2022-08-03T11:19:59.484Z,31.48
2022-08-03T11:20:59.437Z,33.04
2022-08-03T11:21:59.446Z,32.45
2022-08-03T11:22:59.447Z,32.24
2022-08-03T11:24:05.593Z,31.75
2022-08-03T11:25:00.423Z,32.32
2022-08-03T11:25:59.455Z,30.57
2022-08-03T11:27:03.039Z,31.04
2022-08-03T11:27:59.379Z,30.55
2022-08-03T11:28:59.376Z,30.86
2022-08-03T11:29:59.361Z,31.93
2022-08-03T11:30:59.400Z,31.74
2022-08-03T11:31:59.345Z,30.66
2022-08-03T11:32:59.344Z,32.24
2022-08-03T11:33:59.322Z,31.67
2022-08-03T11:34:59.316Z,32.06
2022-08-03T11:35:59.306Z,31.96
2022-08-03T11:36:59.351Z,31.75
2022-08-03T11:38:03.263Z,32.13
2022-08-03T11:39:00.280Z,31.15
2022-08-03T11:39:59.274Z,30.37
2022-08-03T11:40:59.261Z,31.04
2022-08-03T11:41:59.270Z,30.27
2022-08-03T11:42:59.244Z,31.82
2022-08-03T11:43:59.225Z,32.40
2022-08-03T11:44:59.228Z,31.62
2022-08-03T11:45:59.224Z,31.62
2022-08-03T11:46:59.204Z,31.92
2022-08-03T11:47:59.230Z,32.40
2022-08-03T11:48:59.213Z,31.15
2022-08-03T11:49:59.245Z,32.14
2022-08-03T11:50:59.164Z,33.11
2022-08-03T11:51:59.163Z,32.34
2022-08-03T11:52:59.167Z,31.18
2022-08-03T11:53:59.139Z,31.38
2022-08-03T11:54:59.139Z,31.65
2022-08-03T11:55:59.124Z,31.16
2022-08-03T11:56:59.114Z,33.22
2022-08-03T11:59:01.153Z,32.14
2022-08-03T11:59:20.215Z,33.12
2022-08-03T12:00:01.103Z,31.48
2022-08-03T12:00:59.078Z,31.28
2022-08-03T12:01:59.074Z,31.87
2022-08-03T12:02:59.128Z,32.17
2022-08-03T12:03:59.053Z,32.55
2022-08-03T12:04:59.076Z,33.51
2022-08-03T12:05:59.049Z,33.12
2022-08-03T12:06:59.023Z,32.03
2022-08-03T12:08:03.642Z,30.68
2022-08-03T12:08:59.003Z,31.45
2022-08-03T12:09:58.991Z,32.24
2022-08-03T12:11:00.104Z,30.68
2022-08-03T12:12:00.674Z,31.84
2022-08-03T12:12:58.967Z,31.95
2022-08-03T12:14:50.840Z,32.52
2022-08-03T12:14:58.940Z,32.31
2022-08-03T12:15:58.998Z,30.74
2022-08-03T12:16:58.940Z,32.23
2022-08-03T12:17:58.940Z,31.54
2022-08-03T12:18:58.938Z,32.32
2022-08-03T12:19:58.906Z,31.82
2022-08-03T12:20:58.902Z,31.92
2022-08-03T12:21:58.884Z,32.31
2022-08-03T12:22:58.901Z,31.98
2022-08-03T12:23:58.873Z,31.41
2022-08-03T12:24:58.870Z,31.10
2022-08-03T12:25:58.845Z,31.80
2022-08-03T12:27:30.778Z,30.15
2022-08-03T12:27:58.832Z,31.51
2022-08-03T12:28:58.847Z,31.41
2022-08-03T12:29:59.262Z,31.51
2022-08-03T12:30:58.809Z,32.68
2022-08-03T12:31:58.805Z,30.24
2022-08-03T12:32:58.827Z,30.63
2022-08-03T12:33:59.314Z,31.12
2022-08-03T12:35:00.429Z,31.52
2022-08-03T12:35:58.774Z,30.94
2022-08-03T12:36:58.777Z,31.82
2022-08-03T12:37:58.754Z,30.93
2022-08-03T12:38:58.733Z,32.09
2022-08-03T12:40:02.763Z,31.31
2022-08-03T12:40:58.712Z,30.91
2022-08-03T12:41:58.707Z,30.71
2022-08-03T12:42:58.699Z,30.63
2022-08-03T12:43:58.713Z,31.12
2022-08-03T12:44:58.699Z,30.05
2022-08-03T12:46:06.622Z,32.01
2022-08-03T12:46:58.658Z,31.72
2022-08-03T12:47:58.689Z,31.64
2022-08-03T12:48:58.660Z,31.84
2022-08-03T12:49:58.634Z,32.01
2022-08-03T12:50:58.634Z,30.47
2022-08-03T12:52:00.020Z,31.56